Time;durP1;ratioP1;P1;durP2;ratioP2;P2;SDS_P1;SDS_P2;PMS_P1;PMS_P2;Temp;Humidity;BMP_temperature;BMP_pressure;BME280_temperature;BME280_humidity;BME280_pressure;Samples;Min_cycle;Max_cycle;Signal;HPM_P1;HPM_P2
2022/10/24 00:01:34;;;;;;;2.00;1.63;;;18.00;1.00;;;;;;5084367;28;20516;-81
2022/10/24 00:04:03;;;;;;;2.23;1.40;;;18.10;1.00;;;;;;5086369;28;20460;-82
2022/10/24 00:06:36;;;;;;;3.13;1.80;;;17.90;1.00;;;;;;5084883;28;20448;-82
2022/10/24 00:09:04;;;;;;;3.13;1.40;;;18.00;1.00;;;;;;5091516;28;20459;-81
2022/10/24 00:11:32;;;;;;;2.93;1.53;;;18.00;1.00;;;;;;5092797;28;20620;-82
2022/10/24 00:14:01;;;;;;;2.00;1.70;;;17.90;1.00;;;;;;5091835;28;20531;-82
2022/10/24 00:16:34;;;;;;;3.03;2.00;;;17.90;1.00;;;;;;5090742;28;20449;-82
2022/10/24 00:19:02;;;;;;;1.60;1.50;;;18.00;1.00;;;;;;5093285;28;20461;-83
2022/10/24 00:21:30;;;;;;;3.67;1.80;;;18.00;1.00;;;;;;5094878;28;21311;-82
2022/10/24 00:23:59;;;;;;;5.20;2.00;;;18.00;1.00;;;;;;5083525;28;20826;-81
2022/10/24 00:26:28;;;;;;;1.90;1.80;;;18.00;1.00;;;;;;5090180;28;20509;-82
2022/10/24 00:28:56;;;;;;;1.70;1.60;;;18.00;1.00;;;;;;5093775;28;20456;-82
2022/10/24 00:31:25;;;;;;;6.50;1.80;;;17.90;1.00;;;;;;5076454;28;20481;-82
2022/10/24 00:33:55;;;;;;;3.00;1.93;;;18.00;1.00;;;;;;5086678;28;20798;-82
2022/10/24 00:36:24;;;;;;;3.37;1.63;;;17.90;1.00;;;;;;5088634;28;20490;-81
2022/10/24 00:38:53;;;;;;;2.20;1.50;;;17.80;1.00;;;;;;5089597;28;20473;-81
2022/10/24 00:41:24;;;;;;;2.97;1.50;;;17.90;1.00;;;;;;5085755;28;20477;-82
2022/10/24 00:44:18;;;;;;;5.47;1.97;;;17.90;1.00;;;;;;5085162;28;20444;-81
2022/10/24 00:46:49;;;;;;;6.00;1.67;;;17.90;1.00;;;;;;5094681;28;20452;-83
2022/10/24 00:49:22;;;;;;;5.83;2.53;;;17.90;1.00;;;;;;5089172;28;20513;-82
2022/10/24 00:51:56;;;;;;;3.20;1.70;;;17.80;1.00;;;;;;5087256;28;20474;-84
2022/10/24 00:54:25;;;;;;;2.50;1.40;;;17.80;1.00;;;;;;5086049;28;20552;-82
2022/10/24 00:57:02;;;;;;;3.73;2.33;;;17.80;1.00;;;;;;5086462;28;20452;-83
2022/10/24 00:59:31;;;;;;;2.60;1.90;;;17.80;1.00;;;;;;5088034;28;20464;-83
2022/10/24 01:01:59;;;;;;;3.40;2.23;;;17.80;1.00;;;;;;5083906;28;20484;-83
2022/10/24 01:04:29;;;;;;;2.27;1.50;;;17.80;1.00;;;;;;5080343;28;20456;-83
2022/10/24 01:07:16;;;;;;;2.83;1.90;;;17.80;4.60;;;;;;5087379;28;20464;-81
2022/10/24 01:10:22;;;;;;;2.60;1.73;;;17.70;4.70;;;;;;5084976;28;21072;-81
2022/10/24 01:12:59;;;;;;;5.20;1.97;;;17.80;1.00;;;;;;5076870;28;20460;-81
2022/10/24 01:15:37;;;;;;;10.03;2.33;;;17.80;1.00;;;;;;5083794;28;20602;-81
2022/10/24 01:18:12;;;;;;;7.03;2.00;;;17.90;1.00;;;;;;5096638;28;20491;-81
2022/10/24 01:21:02;;;;;;;3.50;1.80;;;17.80;1.00;;;;;;5080701;28;20453;-81
2022/10/24 01:23:54;;;;;;;9.17;2.20;;;17.80;2.90;;;;;;5080764;28;20563;-81
2022/10/24 01:26:54;;;;;;;2.67;1.73;;;17.70;14.10;;;;;;5082256;28;20460;-81
2022/10/24 01:29:46;;;;;;;2.00;1.60;;;17.70;59.90;;;;;;5088359;28;20494;-82
2022/10/24 01:32:22;;;;;;;5.90;1.73;;;17.70;55.70;;;;;;5075694;28;20858;-83
2022/10/24 01:35:00;;;;;;;4.90;2.30;;;17.60;99.90;;;;;;5086715;28;20470;-83
2022/10/24 01:37:33;;;;;;;5.83;2.00;;;17.70;77.00;;;;;;5081934;28;20533;-82
2022/10/24 01:40:08;;;;;;;5.13;2.53;;;17.70;99.90;;;;;;5084929;28;20441;-81
2022/10/24 01:42:39;;;;;;;4.30;2.50;;;17.70;99.90;;;;;;5081385;28;20484;-81
2022/10/24 01:45:13;;;;;;;2.63;1.90;;;17.60;99.90;;;;;;5087138;28;20448;-82
2022/10/24 01:47:46;;;;;;;4.57;1.80;;;17.60;99.90;;;;;;5085921;28;20514;-83
2022/10/24 01:50:16;;;;;;;2.60;1.73;;;17.70;99.90;;;;;;5082371;28;20458;-82
2022/10/24 01:52:46;;;;;;;4.53;2.83;;;17.60;99.90;;;;;;5087898;28;20895;-82
2022/10/24 01:55:15;;;;;;;3.30;2.47;;;17.70;99.90;;;;;;5080556;28;20548;-82
2022/10/24 01:57:43;;;;;;;8.53;2.50;;;17.80;99.90;;;;;;5080389;28;20446;-82
2022/10/24 02:00:17;;;;;;;6.93;2.33;;;17.80;99.90;;;;;;5089486;28;20477;-82
2022/10/24 02:02:49;;;;;;;8.47;2.43;;;17.90;99.90;;;;;;5082387;28;20575;-82
2022/10/24 02:05:21;;;;;;;3.10;2.03;;;17.90;99.90;;;;;;5079162;28;20544;-82
2022/10/24 02:07:53;;;;;;;3.50;2.00;;;17.90;96.80;;;;;;5082125;28;20961;-82
2022/10/24 02:10:26;;;;;;;5.90;2.00;;;17.90;99.90;;;;;;5082989;28;20493;-82
2022/10/24 02:12:59;;;;;;;4.30;2.00;;;17.90;99.90;;;;;;5088770;28;20433;-82
2022/10/24 02:15:32;;;;;;;2.30;2.10;;;17.90;99.90;;;;;;5081781;28;20812;-82
2022/10/24 02:18:02;;;;;;;5.70;2.70;;;17.90;99.90;;;;;;5081403;28;20544;-82
2022/10/24 02:20:35;;;;;;;3.00;2.17;;;18.00;99.90;;;;;;5086119;28;20464;-82
2022/10/24 02:23:10;;;;;;;5.43;2.37;;;18.00;99.90;;;;;;5086549;28;20685;-82
2022/10/24 02:25:42;;;;;;;3.57;2.93;;;18.00;99.90;;;;;;5082877;28;20480;-82
2022/10/24 02:28:18;;;;;;;3.00;2.23;;;17.90;99.90;;;;;;5082519;28;20442;-82
2022/10/24 02:30:55;;;;;;;4.87;2.60;;;17.90;99.90;;;;;;5087716;28;20481;-82
2022/10/24 02:33:26;;;;;;;4.60;2.47;;;17.90;99.90;;;;;;5088152;28;20430;-82
2022/10/24 02:35:56;;;;;;;2.90;2.20;;;17.90;99.90;;;;;;5083308;28;21025;-84
2022/10/24 02:38:28;;;;;;;5.13;2.30;;;17.90;99.90;;;;;;5082859;28;21171;-81
2022/10/24 02:40:58;;;;;;;5.83;2.70;;;17.80;99.90;;;;;;5087128;28;21038;-83
2022/10/24 02:43:28;;;;;;;8.00;3.50;;;17.90;99.90;;;;;;5088517;28;20503;-82
2022/10/24 02:45:58;;;;;;;2.63;2.43;;;17.90;99.90;;;;;;5087410;28;20468;-82
2022/10/24 02:48:30;;;;;;;5.77;2.73;;;17.90;99.90;;;;;;5081874;28;20484;-83
2022/10/24 02:50:58;;;;;;;10.40;3.73;;;17.90;99.90;;;;;;5084742;28;20550;-82
2022/10/24 02:53:27;;;;;;;4.03;2.30;;;17.90;99.90;;;;;;5088180;28;20506;-81
2022/10/24 02:55:56;;;;;;;6.60;3.27;;;17.80;1.00;;;;;;5079273;28;20461;-82
2022/10/24 02:58:24;;;;;;;4.47;2.67;;;17.70;1.00;;;;;;5086015;28;20848;-81
2022/10/24 03:00:52;;;;;;;4.30;2.90;;;17.70;10.70;;;;;;5087177;28;20476;-81
2022/10/24 03:03:22;;;;;;;6.17;3.20;;;17.70;99.90;;;;;;5087681;28;20469;-81
2022/10/24 03:05:50;;;;;;;7.53;3.70;;;17.60;99.90;;;;;;5081152;28;20454;-83
2022/10/24 03:08:18;;;;;;;5.07;2.73;;;17.60;1.00;;;;;;5079664;28;20453;-82
2022/10/24 03:10:47;;;;;;;5.30;3.30;;;17.50;1.00;;;;;;5077867;28;20641;-81
2022/10/24 03:13:15;;;;;;;3.40;2.90;;;17.50;99.90;;;;;;5082281;28;20544;-82
2022/10/24 03:15:43;;;;;;;9.23;4.50;;;17.50;1.00;;;;;;5078872;28;20827;-83
2022/10/24 03:18:12;;;;;;;4.33;3.53;;;17.50;1.00;;;;;;5078891;28;20478;-81
2022/10/24 03:20:41;;;;;;;11.27;3.80;;;17.60;1.00;;;;;;5084752;28;20461;-81
2022/10/24 03:23:10;;;;;;;9.90;3.57;;;17.60;99.90;;;;;;5086688;28;20475;-81
2022/10/24 03:25:38;;;;;;;4.97;3.17;;;17.60;1.00;;;;;;5088349;28;20464;-81
2022/10/24 03:28:06;;;;;;;3.83;3.50;;;17.60;99.90;;;;;;5090027;28;20973;-81
2022/10/24 03:30:35;;;;;;;3.13;2.67;;;17.60;1.00;;;;;;5078351;28;20466;-82
2022/10/24 03:33:03;;;;;;;6.20;3.30;;;17.60;1.00;;;;;;5088878;28;21010;-82
2022/10/24 03:35:31;;;;;;;5.70;3.87;;;17.60;1.00;;;;;;5088085;28;20467;-82
2022/10/24 03:38:00;;;;;;;8.23;3.90;;;17.60;1.00;;;;;;5091082;28;20450;-81
2022/10/24 03:40:28;;;;;;;7.33;3.30;;;17.50;1.00;;;;;;5087088;28;20449;-81
2022/10/24 03:42:57;;;;;;;6.63;4.23;;;17.60;1.00;;;;;;5088507;28;20447;-82
2022/10/24 03:45:25;;;;;;;5.10;3.50;;;17.50;1.00;;;;;;5094634;28;20464;-82
2022/10/24 03:47:53;;;;;;;7.53;3.77;;;17.60;1.00;;;;;;5085522;28;20456;-82
2022/10/24 03:50:21;;;;;;;7.00;3.50;;;17.60;99.90;;;;;;5085407;28;21242;-82
2022/10/24 03:52:49;;;;;;;5.67;3.40;;;17.60;1.00;;;;;;5086227;28;20789;-82
2022/10/24 03:55:19;;;;;;;7.07;3.60;;;17.60;1.00;;;;;;5094563;28;20461;-82
2022/10/24 03:57:47;;;;;;;4.87;3.53;;;17.60;99.90;;;;;;5092769;28;20547;-83
2022/10/24 04:00:17;;;;;;;3.57;3.10;;;17.60;1.00;;;;;;5090986;28;20456;-81
2022/10/24 04:02:46;;;;;;;6.67;4.00;;;17.60;99.90;;;;;;5085922;28;20475;-82
2022/10/24 04:05:14;;;;;;;7.17;4.57;;;17.60;99.90;;;;;;5083605;28;20497;-83
2022/10/24 04:07:42;;;;;;;4.20;3.30;;;17.60;99.90;;;;;;5085624;28;20523;-83
2022/10/24 04:10:11;;;;;;;6.50;3.20;;;17.60;99.90;;;;;;5086725;28;20939;-84
2022/10/24 04:12:41;;;;;;;16.50;4.77;;;17.60;99.90;;;;;;5091628;28;20795;-82
2022/10/24 04:15:10;;;;;;;4.60;3.70;;;17.50;99.90;;;;;;5086310;28;20453;-82
2022/10/24 04:17:38;;;;;;;12.97;3.83;;;17.40;1.00;;;;;;5080486;28;20456;-82
2022/10/24 04:20:07;;;;;;;8.60;3.33;;;17.40;1.00;;;;;;5081555;28;20508;-82
2022/10/24 04:22:36;;;;;;;4.20;3.10;;;17.50;1.00;;;;;;5078688;28;20472;-83
2022/10/24 04:25:05;;;;;;;6.83;3.43;;;17.60;99.90;;;;;;5085242;28;20471;-84
2022/10/24 04:27:35;;;;;;;5.90;2.90;;;17.60;99.90;;;;;;5081608;28;20458;-83
2022/10/24 04:30:06;;;;;;;4.13;3.50;;;17.60;99.90;;;;;;5089713;28;20460;-84
2022/10/24 04:32:34;;;;;;;6.60;3.87;;;17.70;99.90;;;;;;5081243;28;20888;-83
2022/10/24 04:35:03;;;;;;;5.10;4.10;;;17.70;89.20;;;;;;5088195;28;20516;-83
2022/10/24 04:37:31;;;;;;;5.33;2.80;;;17.70;99.90;;;;;;5084638;28;20460;-84
2022/10/24 04:39:59;;;;;;;9.73;3.90;;;17.70;99.90;;;;;;5077006;28;20470;-84
2022/10/24 04:42:28;;;;;;;5.57;3.50;;;17.70;99.80;;;;;;5081567;28;20471;-84
2022/10/24 04:44:56;;;;;;;8.43;3.77;;;17.70;99.90;;;;;;5083758;28;21062;-84
2022/10/24 04:47:25;;;;;;;4.40;3.10;;;17.60;99.90;;;;;;5085916;28;20511;-84
2022/10/24 04:49:54;;;;;;;6.93;3.43;;;17.50;99.90;;;;;;5087355;28;20542;-84
2022/10/24 04:52:22;;;;;;;5.80;4.23;;;17.50;99.90;;;;;;5090614;28;20482;-84
2022/10/24 04:54:50;;;;;;;4.60;3.33;;;17.40;99.90;;;;;;5086531;28;20464;-84
2022/10/24 04:57:18;;;;;;;5.83;3.93;;;17.30;10.90;;;;;;5077102;28;20957;-83
2022/10/24 04:59:46;;;;;;;4.97;3.50;;;17.30;1.00;;;;;;5083449;28;20638;-84
2022/10/24 05:02:14;;;;;;;4.23;3.30;;;17.40;1.00;;;;;;5084242;28;20920;-85
2022/10/24 05:04:44;;;;;;;6.07;3.60;;;17.40;99.90;;;;;;5080020;28;20507;-84
2022/10/24 05:07:12;;;;;;;5.03;3.90;;;17.30;1.00;;;;;;5086433;28;20442;-84
2022/10/24 05:09:40;;;;;;;3.40;3.10;;;17.30;99.90;;;;;;5087564;28;20459;-84
2022/10/24 05:12:09;;;;;;;5.77;3.60;;;17.40;99.90;;;;;;5079594;28;20476;-83
2022/10/24 05:14:37;;;;;;;6.80;4.00;;;17.40;99.90;;;;;;5084049;28;20449;-84
2022/10/24 05:17:05;;;;;;;6.20;3.50;;;17.20;99.90;;;;;;5084835;28;20602;-85
2022/10/24 05:19:33;;;;;;;6.67;3.17;;;17.30;1.00;;;;;;5080239;28;20441;-85
2022/10/24 05:22:03;;;;;;;5.23;3.47;;;17.30;1.00;;;;;;5075833;28;20467;-84
2022/10/24 05:24:35;;;;;;;3.50;3.20;;;17.30;1.00;;;;;;5088361;28;20559;-85
2022/10/24 05:27:03;;;;;;;3.53;3.23;;;17.40;20.00;;;;;;5087944;28;20479;-84
2022/10/24 05:29:32;;;;;;;11.27;3.60;;;17.30;99.90;;;;;;5080566;28;20460;-84
2022/10/24 05:32:00;;;;;;;5.03;3.10;;;17.20;99.90;;;;;;5088104;28;20512;-84
2022/10/24 05:34:28;;;;;;;5.43;3.70;;;17.20;99.90;;;;;;5087317;28;20538;-84
2022/10/24 05:36:56;;;;;;;6.80;3.30;;;17.20;99.90;;;;;;5081116;28;20466;-84
2022/10/24 05:39:25;;;;;;;7.07;3.17;;;17.30;99.90;;;;;;5089753;28;20444;-84
2022/10/24 05:41:54;;;;;;;6.50;3.30;;;17.30;99.90;;;;;;5089935;28;20807;-84
2022/10/24 05:44:22;;;;;;;3.67;2.83;;;17.40;99.90;;;;;;5085695;28;20467;-84
2022/10/24 05:46:51;;;;;;;4.20;3.50;;;17.30;99.90;;;;;;5085615;28;20512;-85
2022/10/24 05:49:20;;;;;;;4.53;4.10;;;17.30;99.90;;;;;;5082546;28;20819;-84
2022/10/24 05:51:48;;;;;;;4.83;3.70;;;17.30;1.00;;;;;;5088639;28;20511;-85
2022/10/24 05:54:16;;;;;;;3.80;3.50;;;17.20;1.00;;;;;;5081134;28;20446;-83
2022/10/24 05:56:46;;;;;;;4.50;3.67;;;17.20;99.90;;;;;;5087543;28;20457;-84
2022/10/24 05:59:14;;;;;;;4.43;3.23;;;17.30;99.90;;;;;;5081765;28;20466;-84
2022/10/24 06:01:42;;;;;;;3.90;3.50;;;17.30;99.90;;;;;;5078005;28;20902;-85
2022/10/24 06:04:11;;;;;;;5.93;3.37;;;17.30;99.90;;;;;;5089193;28;20454;-86
2022/10/24 06:06:43;;;;;;;4.47;3.50;;;17.20;99.90;;;;;;5082586;28;20460;-84
2022/10/24 06:09:12;;;;;;;5.87;4.20;;;17.20;1.00;;;;;;5083699;28;20487;-84
2022/10/24 06:11:41;;;;;;;4.60;3.90;;;17.10;99.90;;;;;;5084145;28;20535;-84
2022/10/24 06:14:10;;;;;;;8.70;3.73;;;17.10;79.00;;;;;;5084869;28;20454;-84
2022/10/24 06:16:39;;;;;;;5.20;4.50;;;17.00;1.00;;;;;;5079233;28;20452;-84
2022/10/24 06:19:07;;;;;;;7.27;4.67;;;16.90;4.80;;;;;;5083358;28;20818;-84
2022/10/24 06:21:35;;;;;;;4.70;4.40;;;16.90;1.30;;;;;;5085660;28;20546;-85
2022/10/24 06:24:03;;;;;;;4.73;4.30;;;17.00;99.90;;;;;;5078559;28;20449;-84
2022/10/24 06:26:31;;;;;;;5.63;4.70;;;17.00;23.10;;;;;;5084126;28;20547;-85
2022/10/24 06:28:59;;;;;;;4.83;4.40;;;17.10;52.20;;;;;;5077477;28;20457;-84
2022/10/24 06:31:28;;;;;;;5.40;4.90;;;17.10;43.30;;;;;;5082366;28;20554;-85
2022/10/24 06:33:57;;;;;;;8.93;4.60;;;17.10;1.00;;;;;;5083257;28;20986;-84
2022/10/24 06:36:25;;;;;;;7.03;4.90;;;17.10;1.00;;;;;;5088893;28;20451;-86
2022/10/24 06:38:58;;;;;;;5.00;4.40;;;17.10;51.20;;;;;;5088245;28;20543;-84
2022/10/24 06:41:26;;;;;;;5.47;4.97;;;16.90;99.90;;;;;;5085637;28;20463;-84
2022/10/24 06:43:55;;;;;;;8.13;5.03;;;16.90;1.00;;;;;;5079749;28;20466;-84
2022/10/24 06:46:23;;;;;;;6.80;4.90;;;16.80;1.00;;;;;;5087556;28;20467;-84
2022/10/24 06:48:55;;;;;;;5.57;5.07;;;16.90;1.00;;;;;;5085936;28;20569;-84
2022/10/24 06:51:23;;;;;;;5.87;5.40;;;17.00;99.90;;;;;;5087101;28;20540;-83
2022/10/24 06:53:51;;;;;;;6.00;5.50;;;17.10;1.00;;;;;;5092523;28;20448;-84
2022/10/24 06:56:20;;;;;;;6.47;5.20;;;17.10;94.40;;;;;;5080639;28;20527;-85
2022/10/24 06:58:48;;;;;;;6.70;5.60;;;17.10;1.00;;;;;;5083647;28;20458;-87
2022/10/24 07:01:19;;;;;;;7.30;5.13;;;17.00;99.90;;;;;;5087160;28;20479;-85
2022/10/24 07:03:48;;;;;;;5.50;5.10;;;17.10;1.00;;;;;;5084411;28;20463;-85
2022/10/24 07:06:19;;;;;;;6.93;5.33;;;17.00;75.90;;;;;;5088833;28;20498;-85
2022/10/24 07:08:48;;;;;;;6.13;5.47;;;17.00;99.90;;;;;;5079943;28;20465;-84
2022/10/24 07:11:16;;;;;;;8.13;5.70;;;17.00;99.90;;;;;;5095121;28;20467;-84
2022/10/24 07:13:44;;;;;;;7.47;6.13;;;17.00;99.90;;;;;;5092168;28;20510;-83
2022/10/24 07:16:12;;;;;;;7.30;6.60;;;17.00;99.90;;;;;;5091041;28;20975;-84
2022/10/24 07:18:40;;;;;;;6.63;6.22;;;17.00;99.90;;;;;;5093205;28;20479;-84
2022/10/24 07:21:11;;;;;;;6.47;6.10;;;17.00;99.90;;;;;;5092006;28;20515;-82
2022/10/24 07:23:40;;;;;;;7.00;6.30;;;17.00;99.90;;;;;;5091479;28;20453;-85
2022/10/24 07:26:11;;;;;;;7.60;6.90;;;17.00;99.90;;;;;;5090468;28;20535;-83
2022/10/24 07:28:40;;;;;;;7.13;6.27;;;16.90;99.90;;;;;;5093207;28;20452;-83
2022/10/24 07:31:09;;;;;;;6.73;6.10;;;16.90;1.00;;;;;;5090520;28;21454;-84
2022/10/24 07:33:38;;;;;;;5.90;5.60;;;16.90;99.90;;;;;;5088833;28;20456;-83
2022/10/24 07:36:06;;;;;;;6.00;5.60;;;17.00;99.90;;;;;;5096107;28;20490;-86
2022/10/24 07:38:35;;;;;;;6.63;5.90;;;17.10;99.90;;;;;;5077823;28;20575;-85
2022/10/24 07:41:06;;;;;;;7.07;6.47;;;17.00;99.90;;;;;;5091238;28;20496;-84
2022/10/24 07:43:34;;;;;;;7.40;6.67;;;17.00;99.90;;;;;;5095477;28;20460;-84
2022/10/24 07:46:06;;;;;;;7.20;6.63;;;17.00;99.90;;;;;;5086228;28;20476;-83
2022/10/24 07:48:34;;;;;;;6.77;6.23;;;17.00;99.90;;;;;;5100363;28;20860;-84
2022/10/24 07:51:06;;;;;;;8.27;7.60;;;16.90;99.90;;;;;;5092832;28;20575;-85
2022/10/24 07:53:34;;;;;;;7.63;7.17;;;16.70;99.90;;;;;;5091957;28;20448;-85
2022/10/24 07:56:08;;;;;;;8.80;6.10;;;16.70;99.90;;;;;;5081616;28;20516;-84
2022/10/24 07:58:37;;;;;;;6.57;6.00;;;16.70;99.90;;;;;;5095448;28;20451;-84
2022/10/24 08:01:06;;;;;;;7.87;6.50;;;16.80;99.90;;;;;;5095594;28;20529;-85
2022/10/24 08:03:35;;;;;;;6.20;5.70;;;16.60;99.90;;;;;;5090012;28;20467;-84
2022/10/24 08:06:05;;;;;;;6.63;5.97;;;16.70;99.90;;;;;;5085891;28;20463;-85
2022/10/24 08:08:33;;;;;;;6.90;6.50;;;16.50;99.90;;;;;;5082851;28;20520;-88
2022/10/24 08:11:09;;;;;;;6.23;5.83;;;16.20;1.00;;;;;;5086667;28;20473;-85
2022/10/24 08:13:38;;;;;;;7.40;6.90;;;16.10;1.00;;;;;;5097034;28;20452;-84
2022/10/24 08:16:07;;;;;;;6.67;6.07;;;16.30;1.00;;;;;;5087409;28;21891;-83
2022/10/24 08:18:36;;;;;;;7.03;6.63;;;16.30;1.00;;;;;;5081096;28;20456;-85
2022/10/24 08:21:08;;;;;;;6.37;6.07;;;16.50;99.90;;;;;;5091237;28;20468;-84
2022/10/24 08:23:37;;;;;;;7.10;6.50;;;16.60;99.90;;;;;;5089450;28;20455;-84
2022/10/24 08:26:06;;;;;;;6.77;6.20;;;16.70;99.90;;;;;;5089325;28;20474;-84
2022/10/24 08:28:36;;;;;;;7.13;6.57;;;16.70;99.90;;;;;;5082729;28;20465;-85
2022/10/24 08:31:06;;;;;;;6.83;6.27;;;16.70;99.90;;;;;;5084843;28;20537;-84
2022/10/24 08:33:35;;;;;;;6.70;6.43;;;16.70;99.90;;;;;;5085958;28;20457;-85
2022/10/24 08:36:05;;;;;;;8.30;7.60;;;16.70;99.90;;;;;;5085175;28;20533;-84
2022/10/24 08:38:34;;;;;;;8.10;7.30;;;16.90;99.90;;;;;;5097181;28;20478;-84
2022/10/24 08:41:02;;;;;;;10.63;8.90;;;16.90;99.90;;;;;;5084150;28;20520;-84
2022/10/24 08:43:30;;;;;;;7.80;7.07;;;16.90;99.90;;;;;;5081233;28;20457;-85
2022/10/24 08:46:10;;;;;;;6.80;6.40;;;16.90;99.90;;;;;;5083435;28;20508;-84
2022/10/24 08:48:47;;;;;;;7.03;6.73;;;16.80;99.90;;;;;;5081789;28;20463;-84
2022/10/24 08:51:26;;;;;;;8.27;7.67;;;16.80;99.90;;;;;;5082123;28;20464;-85
2022/10/24 08:53:58;;;;;;;7.23;6.70;;;16.80;99.90;;;;;;5081175;28;20463;-85
2022/10/24 08:56:31;;;;;;;6.97;6.67;;;16.80;99.90;;;;;;5083310;28;20521;-84
2022/10/24 08:59:02;;;;;;;6.87;6.37;;;16.70;99.90;;;;;;5081061;28;20548;-84
2022/10/24 09:01:37;;;;;;;6.80;6.30;;;16.60;99.90;;;;;;5081477;28;20475;-84
2022/10/24 09:04:09;;;;;;;7.93;7.57;;;16.60;99.90;;;;;;5081220;28;20865;-85
2022/10/24 09:06:38;;;;;;;6.60;6.20;;;16.70;99.90;;;;;;5080266;28;22879;-84
2022/10/24 09:09:17;;;;;;;6.93;6.63;;;16.60;99.90;;;;;;5083888;28;20460;-84
2022/10/24 09:11:50;;;;;;;7.73;7.13;;;16.60;99.90;;;;;;5086984;28;20486;-86
2022/10/24 09:14:20;;;;;;;7.67;7.17;;;16.60;99.90;;;;;;5087997;28;20960;-84
2022/10/24 09:16:53;;;;;;;8.27;7.50;;;16.70;99.90;;;;;;5090617;28;20802;-84
2022/10/24 09:19:24;;;;;;;7.30;7.00;;;16.70;99.90;;;;;;5083104;28;20471;-84
2022/10/24 09:21:54;;;;;;;6.90;6.60;;;16.70;99.90;;;;;;5090321;28;20464;-84
2022/10/24 09:24:33;;;;;;;6.80;6.40;;;16.80;99.90;;;;;;5088720;28;21192;-85
2022/10/24 09:27:03;;;;;;;7.43;6.97;;;16.70;99.90;;;;;;5089722;28;21143;-84
2022/10/24 09:29:34;;;;;;;8.83;7.97;;;16.80;99.90;;;;;;5084416;28;20456;-85
2022/10/24 09:32:04;;;;;;;9.17;7.20;;;16.70;99.90;;;;;;5082068;28;20484;-85
2022/10/24 09:34:32;;;;;;;7.77;7.20;;;16.60;99.90;;;;;;5081218;28;20500;-84
2022/10/24 09:37:00;;;;;;;7.47;7.17;;;16.80;99.90;;;;;;5082565;28;21048;-84
2022/10/24 09:39:31;;;;;;;7.37;6.87;;;16.80;99.90;;;;;;5079274;28;20484;-84
2022/10/24 09:42:00;;;;;;;8.03;7.30;;;16.70;99.90;;;;;;5082542;28;20472;-84
2022/10/24 09:44:34;;;;;;;7.27;6.67;;;16.70;99.90;;;;;;5082963;28;20542;-84
2022/10/24 09:47:08;;;;;;;7.80;7.23;;;16.70;99.90;;;;;;5080659;28;20504;-84
2022/10/24 09:49:40;;;;;;;6.83;6.43;;;16.70;99.90;;;;;;5079814;28;20527;-84
2022/10/24 09:52:17;;;;;;;7.73;7.20;;;16.70;99.90;;;;;;5090087;28;20464;-84
2022/10/24 09:54:46;;;;;;;7.47;6.70;;;16.60;99.90;;;;;;5089356;28;20448;-84
2022/10/24 09:57:16;;;;;;;7.20;6.90;;;16.60;99.90;;;;;;5089281;28;20513;-85
2022/10/24 09:59:46;;;;;;;8.33;7.73;;;16.60;99.90;;;;;;5081942;28;20485;-87
2022/10/24 10:02:27;;;;;;;8.00;7.30;;;16.70;99.90;;;;;;5081182;28;20477;-84
2022/10/24 10:05:21;;;;;;;7.93;7.67;;;16.80;99.90;;;;;;5080932;28;20470;-84
2022/10/24 10:07:51;;;;;;;7.97;7.40;;;16.80;99.90;;;;;;5080892;28;20508;-85
2022/10/24 10:10:32;;;;;;;8.87;8.30;;;16.80;99.90;;;;;;5084144;28;20453;-83
2022/10/24 10:13:04;;;;;;;9.53;8.40;;;16.80;99.90;;;;;;5084185;28;20794;-84
2022/10/24 10:15:36;;;;;;;7.43;7.00;;;16.70;99.90;;;;;;5080983;28;20822;-84
2022/10/24 10:18:23;;;;;;;7.70;7.40;;;16.70;99.90;;;;;;5082423;28;20457;-84
2022/10/24 10:21:02;;;;;;;8.07;7.47;;;16.70;99.90;;;;;;5082737;28;20480;-84
2022/10/24 10:23:32;;;;;;;7.43;7.13;;;16.70;99.90;;;;;;5083100;28;20996;-85
2022/10/24 10:26:21;;;;;;;8.53;7.93;;;16.60;99.90;;;;;;5081192;28;20464;-84
2022/10/24 10:28:56;;;;;;;7.93;7.50;;;16.60;99.90;;;;;;5085776;28;21013;-84
2022/10/24 10:31:28;;;;;;;7.87;7.30;;;16.50;99.90;;;;;;5084070;28;20475;-84
2022/10/24 10:34:14;;;;;;;7.50;7.10;;;16.50;99.90;;;;;;5082481;28;20468;-84
2022/10/24 10:37:05;;;;;;;7.63;7.23;;;16.50;99.90;;;;;;5100796;28;20903;-85
2022/10/24 10:39:54;;;;;;;7.30;6.80;;;16.50;99.90;;;;;;5089136;28;20879;-84
2022/10/24 10:42:27;;;;;;;8.17;7.67;;;16.50;1.00;;;;;;5093256;28;20467;-84
2022/10/24 10:45:07;;;;;;;8.53;7.87;;;16.50;99.90;;;;;;5078861;28;20464;-83
2022/10/24 10:47:46;;;;;;;6.50;6.30;;;16.50;99.90;;;;;;5081618;28;20472;-86
2022/10/24 10:50:28;;;;;;;6.20;5.70;;;16.50;99.90;;;;;;5086638;28;20464;-84
2022/10/24 10:53:04;;;;;;;6.10;5.70;;;16.40;99.90;;;;;;5086786;28;20462;-83
2022/10/24 10:55:45;;;;;;;6.37;5.97;;;16.30;99.90;;;;;;5086684;28;20445;-85
2022/10/24 10:58:25;;;;;;;6.53;5.90;;;16.40;99.90;;;;;;5083764;28;20466;-84
2022/10/24 11:01:02;;;;;;;5.80;5.40;;;16.30;99.90;;;;;;5084502;28;20943;-83
2022/10/24 11:03:40;;;;;;;6.40;5.83;;;16.30;42.20;;;;;;5088147;28;20768;-85
2022/10/24 11:06:28;;;;;;;5.30;5.10;;;16.40;99.90;;;;;;5087970;28;20479;-83
2022/10/24 11:09:13;;;;;;;5.27;5.03;;;16.30;99.90;;;;;;5087342;28;21267;-85
2022/10/24 11:11:45;;;;;;;6.90;6.43;;;16.40;99.90;;;;;;5084619;28;20518;-84
2022/10/24 11:14:25;;;;;;;6.73;6.00;;;16.30;99.90;;;;;;5085338;28;20466;-83
2022/10/24 11:16:58;;;;;;;6.40;6.10;;;16.40;99.90;;;;;;5083364;28;20543;-83
2022/10/24 11:19:33;;;;;;;5.70;5.50;;;16.40;99.90;;;;;;5085249;28;20451;-83
2022/10/24 11:22:07;;;;;;;7.10;6.37;;;16.40;1.00;;;;;;5087176;28;20491;-84
2022/10/24 11:24:46;;;;;;;6.13;5.70;;;16.40;99.90;;;;;;5087027;28;20517;-84
2022/10/24 11:27:23;;;;;;;6.30;5.90;;;16.50;50.70;;;;;;5085453;28;20463;-85
2022/10/24 11:29:56;;;;;;;6.30;6.10;;;16.40;1.00;;;;;;5087011;28;20467;-84
2022/10/24 11:32:32;;;;;;;6.60;6.10;;;16.50;99.90;;;;;;5084490;28;21134;-84
2022/10/24 11:35:05;;;;;;;5.80;5.50;;;16.50;99.90;;;;;;5086869;28;20463;-84
2022/10/24 11:37:39;;;;;;;6.13;5.93;;;16.50;61.90;;;;;;5086691;28;20533;-84
2022/10/24 11:40:12;;;;;;;6.47;6.17;;;16.40;7.50;;;;;;5089845;28;20451;-83
2022/10/24 11:42:47;;;;;;;6.33;6.03;;;16.50;99.90;;;;;;5088869;28;20488;-84
2022/10/24 11:45:18;;;;;;;6.20;6.00;;;16.50;99.90;;;;;;5089279;28;20466;-83
2022/10/24 11:47:54;;;;;;;6.10;6.00;;;16.40;99.90;;;;;;5083715;28;20552;-84
2022/10/24 11:50:27;;;;;;;7.77;7.20;;;16.40;99.90;;;;;;5083777;28;20460;-84
2022/10/24 11:53:02;;;;;;;6.53;6.23;;;16.60;99.90;;;;;;5089942;28;20826;-83
2022/10/24 11:55:37;;;;;;;6.77;6.47;;;16.60;99.90;;;;;;5090710;28;20446;-85
2022/10/24 11:58:12;;;;;;;7.67;7.30;;;16.60;99.90;;;;;;5089781;28;21006;-85
2022/10/24 12:01:00;;;;;;;6.90;6.60;;;16.70;99.90;;;;;;5085452;28;20469;-86
2022/10/24 12:03:56;;;;;;;6.53;6.17;;;16.70;99.90;;;;;;5086066;28;20463;-83
2022/10/24 12:06:52;;;;;;;6.33;6.10;;;16.70;59.60;;;;;;5083262;28;20448;-84
2022/10/24 12:09:35;;;;;;;6.13;5.93;;;16.80;1.00;;;;;;5081178;28;20480;-83
2022/10/24 12:12:14;;;;;;;7.43;7.13;;;16.80;1.00;;;;;;5086849;28;20476;-84
2022/10/24 12:14:54;;;;;;;6.53;6.33;;;16.70;1.00;;;;;;5086281;28;20479;-84
2022/10/24 12:17:41;;;;;;;6.07;5.97;;;16.70;1.00;;;;;;5085221;28;20465;-85
2022/10/24 12:20:14;;;;;;;6.37;6.03;;;16.70;1.00;;;;;;5082822;28;20954;-84
2022/10/24 12:22:44;;;;;;;6.50;6.10;;;16.70;1.00;;;;;;5080764;28;20560;-83
2022/10/24 12:25:22;;;;;;;5.90;5.80;;;16.70;1.00;;;;;;5091662;28;20457;-84
2022/10/24 12:27:55;;;;;;;6.23;6.00;;;16.60;99.90;;;;;;5087544;28;20560;-84
2022/10/24 12:30:26;;;;;;;6.77;6.23;;;16.60;70.00;;;;;;5090845;28;20448;-84
2022/10/24 12:32:57;;;;;;;7.47;7.10;;;16.60;1.00;;;;;;5091050;28;20533;-84
2022/10/24 12:35:46;;;;;;;6.20;6.00;;;16.70;1.00;;;;;;5079696;28;20541;-85
2022/10/24 12:38:18;;;;;;;6.17;5.97;;;16.70;1.00;;;;;;5081881;28;20460;-85
2022/10/24 12:40:54;;;;;;;5.83;5.67;;;16.70;99.90;;;;;;5080337;28;20440;-82
2022/10/24 12:43:29;;;;;;;5.67;5.47;;;16.60;1.00;;;;;;5090511;28;20951;-84
2022/10/24 12:46:00;;;;;;;5.70;5.50;;;16.70;99.90;;;;;;5077006;28;20448;-86
2022/10/24 12:48:34;;;;;;;6.03;5.70;;;16.70;99.90;;;;;;5087004;28;20482;-84
2022/10/24 12:51:27;;;;;;;5.37;5.17;;;16.60;1.00;;;;;;5088596;28;20483;-84
2022/10/24 12:54:37;;;;;;;5.40;5.30;;;16.70;99.90;;;;;;5095509;28;20498;-84
2022/10/24 12:57:25;;;;;;;6.37;6.17;;;16.80;1.00;;;;;;5076338;28;20821;-85
2022/10/24 12:59:55;;;;;;;5.90;5.70;;;16.80;1.00;;;;;;5093652;28;20534;-85
2022/10/24 13:02:40;;;;;;;5.60;5.50;;;16.90;99.90;;;;;;5082832;28;21021;-84
2022/10/24 13:05:33;;;;;;;5.43;5.20;;;16.90;99.90;;;;;;5082279;28;20954;-84
2022/10/24 13:08:14;;;;;;;4.80;4.57;;;16.90;99.90;;;;;;5084551;28;20518;-84
2022/10/24 13:10:52;;;;;;;5.07;4.67;;;16.90;1.00;;;;;;5088611;28;20936;-84
2022/10/24 13:14:04;;;;;;;4.90;4.70;;;16.80;94.40;;;;;;5085872;28;20449;-84
2022/10/24 13:16:42;;;;;;;5.50;5.30;;;16.90;99.90;;;;;;5080196;28;20473;-84
2022/10/24 13:19:16;;;;;;;5.30;5.20;;;16.90;1.00;;;;;;5087208;28;20449;-83